createdAt,value
2023-02-27T00:01:15.659Z,93.00
2023-02-27T00:03:42.445Z,93.10
2023-02-27T00:06:09.049Z,93.00
2023-02-27T00:08:35.693Z,92.50
2023-02-27T00:11:02.378Z,93.70
2023-02-27T00:13:29.041Z,93.20
2023-02-27T00:15:55.941Z,92.70
2023-02-27T00:18:22.595Z,93.00
2023-02-27T00:20:49.184Z,92.60
2023-02-27T00:23:15.869Z,92.50
2023-02-27T00:25:42.543Z,92.30
2023-02-27T00:28:09.221Z,92.40
2023-02-27T00:30:35.884Z,92.10
2023-02-27T00:33:02.545Z,91.80
2023-02-27T00:35:29.165Z,91.60
2023-02-27T00:37:55.830Z,91.70
2023-02-27T00:40:22.542Z,91.60
2023-02-27T00:42:49.234Z,91.00
2023-02-27T00:45:15.928Z,90.70
2023-02-27T00:47:42.566Z,91.40
2023-02-27T00:50:09.224Z,91.60
2023-02-27T00:52:35.861Z,91.60
2023-02-27T00:55:02.550Z,91.30
2023-02-27T00:57:29.182Z,91.40
2023-02-27T00:59:55.788Z,92.10
2023-02-27T01:02:22.484Z,92.10
2023-02-27T01:04:49.199Z,91.50
2023-02-27T01:07:15.882Z,91.00
2023-02-27T01:09:42.553Z,90.70
2023-02-27T01:12:09.224Z,90.30
2023-02-27T01:14:35.913Z,90.40
2023-02-27T01:17:02.561Z,90.20
2023-02-27T01:19:29.283Z,90.40
2023-02-27T01:21:56.921Z,90.50
2023-02-27T01:24:23.605Z,90.60
2023-02-27T01:26:50.238Z,90.40
2023-02-27T01:29:16.920Z,91.10
2023-02-27T01:31:43.645Z,90.60
2023-02-27T01:34:10.407Z,90.90
2023-02-27T01:36:37.080Z,90.90
2023-02-27T01:39:03.834Z,91.00
2023-02-27T01:41:30.502Z,91.20
2023-02-27T01:43:57.144Z,91.00
2023-02-27T01:46:23.874Z,91.10
2023-02-27T01:48:50.528Z,91.80
2023-02-27T01:51:17.220Z,91.90
2023-02-27T01:53:43.810Z,91.90
2023-02-27T01:56:10.467Z,91.70
2023-02-27T01:58:37.076Z,91.80
2023-02-27T02:01:04.000Z,92.00
2023-02-27T02:03:30.690Z,91.80
2023-02-27T02:05:57.334Z,92.40
2023-02-27T02:08:23.957Z,92.30
2023-02-27T02:10:50.622Z,91.80
2023-02-27T02:13:17.293Z,91.90
2023-02-27T02:15:43.922Z,91.80
2023-02-27T02:18:10.621Z,91.90
2023-02-27T02:20:37.254Z,92.20
2023-02-27T02:23:03.891Z,92.10
2023-02-27T02:25:30.576Z,92.30
2023-02-27T02:27:57.184Z,92.90
2023-02-27T02:30:23.861Z,92.00
2023-02-27T02:32:50.532Z,92.10
2023-02-27T02:35:17.163Z,92.00
2023-02-27T02:37:43.798Z,91.20
2023-02-27T02:40:10.484Z,91.20
2023-02-27T02:42:37.241Z,91.40
2023-02-27T02:45:03.908Z,91.40
2023-02-27T02:47:30.508Z,91.20
2023-02-27T02:49:57.176Z,91.20
2023-02-27T02:52:23.851Z,91.10
2023-02-27T02:54:50.453Z,91.40
2023-02-27T02:57:17.151Z,91.60
2023-02-27T02:59:43.851Z,91.50
2023-02-27T03:02:10.585Z,91.50
2023-02-27T03:04:37.266Z,91.30
2023-02-27T03:07:03.953Z,90.90
2023-02-27T03:09:30.600Z,90.80
2023-02-27T03:11:57.258Z,91.00
2023-02-27T03:14:23.895Z,91.00
2023-02-27T03:16:50.532Z,91.10
2023-02-27T03:19:17.129Z,91.10
2023-02-27T03:21:43.737Z,91.00
2023-02-27T03:24:10.399Z,91.00
2023-02-27T03:26:37.078Z,91.10
2023-02-27T03:29:03.736Z,91.10
2023-02-27T03:31:30.704Z,91.00
2023-02-27T03:33:57.518Z,91.10
2023-02-27T03:36:24.148Z,91.20
2023-02-27T03:38:50.854Z,91.40
2023-02-27T03:41:17.607Z,91.20
2023-02-27T03:43:44.250Z,91.00
2023-02-27T03:46:10.941Z,91.30
2023-02-27T03:48:37.608Z,91.40
2023-02-27T03:51:04.248Z,91.60
2023-02-27T03:53:30.954Z,91.50
2023-02-27T03:55:57.548Z,91.60
2023-02-27T03:58:24.257Z,92.00
2023-02-27T04:00:50.876Z,92.30
2023-02-27T04:03:17.475Z,92.80
2023-02-27T04:05:44.183Z,92.30
2023-02-27T04:08:10.812Z,91.70
2023-02-27T04:10:37.449Z,92.10
2023-02-27T04:13:04.128Z,92.20
2023-02-27T04:15:30.784Z,91.60
2023-02-27T04:17:57.458Z,91.60
2023-02-27T04:20:24.109Z,91.70
2023-02-27T04:22:50.711Z,92.20
2023-02-27T04:25:17.384Z,91.90
2023-02-27T04:27:44.010Z,91.70
2023-02-27T04:30:10.659Z,91.70
2023-02-27T04:32:37.510Z,91.80
2023-02-27T04:35:04.275Z,91.90
2023-02-27T04:37:30.940Z,91.80
2023-02-27T04:39:57.563Z,92.00
2023-02-27T04:42:24.256Z,92.40
2023-02-27T04:44:50.947Z,92.60
2023-02-27T04:47:17.653Z,92.70
2023-02-27T04:49:44.312Z,92.20
2023-02-27T04:52:11.011Z,92.70
2023-02-27T04:54:37.673Z,92.50
2023-02-27T04:57:04.365Z,93.20
2023-02-27T04:59:31.056Z,92.90
2023-02-27T05:01:57.885Z,93.00
2023-02-27T05:04:24.600Z,93.20
2023-02-27T05:06:51.238Z,92.50
2023-02-27T05:09:17.832Z,92.00
2023-02-27T05:11:44.477Z,92.00
2023-02-27T05:14:11.101Z,92.00
2023-02-27T05:16:37.768Z,92.30
2023-02-27T05:19:04.422Z,93.00
2023-02-27T05:21:31.131Z,93.20
2023-02-27T05:23:57.836Z,92.60
2023-02-27T05:26:24.497Z,92.80
2023-02-27T05:28:51.146Z,93.50
2023-02-27T05:31:17.825Z,93.10
2023-02-27T05:33:44.466Z,93.60
2023-02-27T05:36:11.162Z,93.00
2023-02-27T05:38:37.829Z,92.60
2023-02-27T05:41:04.503Z,92.40
2023-02-27T05:43:31.188Z,92.10
2023-02-27T05:45:57.887Z,92.50
2023-02-27T05:48:24.535Z,92.80
2023-02-27T05:50:51.171Z,92.60
2023-02-27T05:53:17.886Z,92.60
2023-02-27T05:55:44.493Z,92.30
2023-02-27T05:58:11.231Z,92.10
2023-02-27T06:00:37.843Z,92.20
2023-02-27T06:03:04.590Z,92.00
2023-02-27T06:05:31.294Z,92.20
2023-02-27T06:07:57.927Z,92.40
2023-02-27T06:10:24.595Z,92.10
2023-02-27T06:12:51.203Z,91.90
2023-02-27T06:15:17.927Z,92.50
2023-02-27T06:17:44.541Z,92.90
2023-02-27T06:20:12.447Z,92.20
2023-02-27T06:22:40.078Z,91.80
2023-02-27T06:25:06.697Z,91.70
2023-02-27T06:27:33.321Z,91.60
2023-02-27T06:30:00.010Z,91.40
2023-02-27T06:32:26.669Z,91.10
2023-02-27T06:34:53.343Z,91.20
2023-02-27T06:37:20.038Z,92.10
2023-02-27T06:39:46.690Z,92.70
2023-02-27T06:42:13.349Z,92.70
2023-02-27T06:44:39.946Z,92.50
2023-02-27T06:47:06.696Z,92.60
2023-02-27T06:49:33.341Z,92.50
2023-02-27T06:52:12.204Z,92.40
2023-02-27T06:54:38.800Z,92.20
2023-02-27T06:57:05.482Z,92.40
2023-02-27T06:59:32.219Z,92.50
2023-02-27T07:01:58.872Z,92.20
2023-02-27T07:04:25.602Z,91.20
2023-02-27T07:07:34.500Z,91.10
2023-02-27T07:09:38.914Z,91.70
2023-02-27T07:12:05.552Z,91.80
2023-02-27T07:14:32.290Z,91.50
2023-02-27T07:16:58.952Z,91.90
2023-02-27T07:19:25.587Z,92.00
2023-02-27T07:21:52.278Z,91.80
2023-02-27T07:24:18.945Z,91.80
2023-02-27T07:26:45.637Z,92.20
2023-02-27T07:29:12.322Z,92.00
2023-02-27T07:31:39.080Z,91.00
2023-02-27T07:34:05.827Z,90.60
2023-02-27T07:36:32.577Z,90.60
2023-02-27T07:38:59.237Z,90.30
2023-02-27T07:41:30.815Z,90.10
2023-02-27T07:43:57.826Z,89.70
2023-02-27T07:46:24.495Z,89.80
2023-02-27T07:48:51.324Z,89.40
2023-02-27T07:51:18.010Z,89.50
2023-02-27T07:53:44.740Z,89.80
2023-02-27T07:56:11.375Z,90.00
2023-02-27T07:58:38.262Z,88.70
2023-02-27T08:01:04.972Z,88.10
2023-02-27T08:03:31.617Z,87.80
2023-02-27T08:05:58.609Z,86.60
2023-02-27T08:08:26.785Z,87.40
2023-02-27T08:10:53.443Z,85.80
2023-02-27T08:13:25.175Z,85.90
2023-02-27T08:16:02.539Z,86.20
2023-02-27T08:18:29.790Z,85.00
2023-02-27T08:20:56.515Z,86.40
2023-02-27T08:23:23.112Z,86.00
2023-02-27T08:25:49.728Z,83.30
2023-02-27T08:28:16.377Z,83.20
2023-02-27T08:30:43.045Z,83.10
2023-02-27T08:33:09.718Z,84.80
2023-02-27T08:35:36.393Z,86.10
2023-02-27T08:38:03.134Z,81.50
2023-02-27T08:40:29.827Z,85.60
2023-02-27T08:42:56.507Z,86.90
2023-02-27T08:45:23.126Z,84.30
2023-02-27T08:47:49.798Z,81.10
2023-02-27T08:50:16.401Z,81.50
2023-02-27T08:52:43.043Z,82.90
2023-02-27T08:55:09.699Z,83.80
2023-02-27T08:57:38.214Z,82.60
2023-02-27T09:00:04.865Z,80.20
2023-02-27T09:02:31.640Z,83.70
2023-02-27T09:04:58.313Z,81.20
2023-02-27T09:07:24.978Z,81.30
2023-02-27T09:09:51.614Z,80.20
2023-02-27T09:12:18.313Z,80.00
2023-02-27T09:14:44.977Z,79.40
2023-02-27T09:17:11.620Z,78.10
2023-02-27T09:19:38.282Z,76.40
2023-02-27T09:22:04.879Z,76.50
2023-02-27T09:24:31.517Z,75.70
2023-02-27T09:26:58.194Z,75.90
2023-02-27T09:29:24.857Z,76.30
2023-02-27T09:31:51.566Z,76.10
2023-02-27T09:34:18.262Z,79.40
2023-02-27T09:36:44.945Z,77.50
2023-02-27T09:39:11.610Z,77.40
2023-02-27T09:41:38.219Z,77.90
2023-02-27T09:44:04.911Z,76.80
2023-02-27T09:46:31.558Z,77.60
2023-02-27T09:48:58.188Z,78.00
2023-02-27T09:51:25.386Z,77.80
2023-02-27T09:53:52.197Z,74.70
2023-02-27T09:56:21.143Z,76.20
2023-02-27T09:58:47.772Z,77.70
2023-02-27T10:01:14.405Z,75.90
2023-02-27T10:03:41.115Z,76.30
2023-02-27T10:06:07.806Z,76.40
2023-02-27T10:08:34.499Z,75.90
2023-02-27T10:11:01.135Z,76.50
2023-02-27T10:13:27.789Z,75.90
2023-02-27T10:15:54.540Z,76.00
2023-02-27T10:18:28.270Z,79.60
2023-02-27T10:20:56.419Z,78.00
2023-02-27T10:23:23.123Z,76.40
2023-02-27T10:25:49.756Z,78.40
2023-02-27T10:28:16.370Z,77.60
2023-02-27T10:30:43.143Z,75.10
2023-02-27T10:33:09.846Z,76.90
2023-02-27T10:35:36.529Z,74.80
2023-02-27T10:38:03.275Z,76.20
2023-02-27T10:40:29.921Z,74.60
2023-02-27T10:42:56.625Z,77.90
2023-02-27T10:45:23.309Z,78.30
2023-02-27T10:47:49.964Z,77.80
2023-02-27T10:50:16.620Z,78.80
2023-02-27T10:52:43.272Z,77.50
2023-02-27T10:55:09.924Z,74.70
2023-02-27T10:57:36.585Z,74.80
2023-02-27T11:00:03.246Z,73.80
2023-02-27T11:02:29.928Z,75.00
2023-02-27T11:04:56.635Z,73.60
2023-02-27T11:07:23.324Z,75.40
2023-02-27T11:09:49.948Z,76.10
2023-02-27T11:12:16.591Z,74.70
2023-02-27T11:14:43.442Z,76.20
2023-02-27T11:17:10.097Z,75.30
2023-02-27T11:19:36.753Z,76.60
2023-02-27T11:22:03.441Z,76.00
2023-02-27T11:24:30.095Z,77.60
2023-02-27T11:26:56.738Z,76.50
2023-02-27T11:29:23.357Z,74.90
2023-02-27T11:31:50.082Z,75.80
2023-02-27T11:34:16.749Z,75.90
2023-02-27T11:36:43.393Z,73.40
2023-02-27T11:39:10.638Z,75.60
2023-02-27T11:41:37.272Z,74.30
2023-02-27T11:44:03.939Z,73.80
2023-02-27T11:46:47.090Z,74.00
2023-02-27T11:49:14.862Z,76.90
2023-02-27T11:51:41.525Z,76.90
2023-02-27T11:54:08.201Z,74.10
2023-02-27T11:56:36.208Z,74.80
2023-02-27T11:59:03.018Z,74.00
2023-02-27T12:01:29.769Z,76.90
2023-02-27T12:03:56.563Z,80.80
2023-02-27T12:06:23.251Z,80.80
2023-02-27T12:08:49.959Z,80.50
2023-02-27T12:11:16.624Z,77.00
2023-02-27T12:13:43.274Z,76.90
2023-02-27T12:16:10.081Z,75.40
2023-02-27T12:18:36.835Z,74.40
2023-02-27T12:21:03.583Z,75.80
2023-02-27T12:23:30.234Z,74.80
2023-02-27T12:25:57.029Z,76.10
2023-02-27T12:28:24.320Z,78.20
2023-02-27T12:30:51.007Z,76.60
2023-02-27T12:33:17.974Z,77.40
2023-02-27T12:35:44.684Z,77.40
2023-02-27T12:38:11.400Z,77.70
2023-02-27T12:40:38.027Z,78.90
2023-02-27T12:43:04.689Z,76.10
2023-02-27T12:45:31.582Z,76.30
2023-02-27T12:47:58.291Z,74.00
2023-02-27T12:50:24.989Z,76.10
2023-02-27T12:52:51.669Z,77.10
2023-02-27T12:55:18.340Z,77.70
2023-02-27T12:57:45.005Z,77.90
2023-02-27T13:00:11.713Z,77.60
2023-02-27T13:02:38.356Z,78.90
2023-02-27T13:05:04.987Z,78.30
2023-02-27T13:07:31.699Z,77.60
2023-02-27T13:09:58.403Z,78.00
2023-02-27T13:12:25.056Z,79.50
2023-02-27T13:14:51.727Z,77.70
2023-02-27T13:17:18.424Z,78.40
2023-02-27T13:19:45.156Z,77.40
2023-02-27T13:22:11.772Z,78.30
2023-02-27T13:24:38.454Z,78.30
2023-02-27T13:27:05.178Z,78.30
2023-02-27T13:29:33.444Z,76.80
2023-02-27T13:32:01.274Z,77.40
2023-02-27T13:34:27.967Z,76.50
2023-02-27T13:36:54.740Z,76.50
2023-02-27T13:39:21.407Z,76.30
2023-02-27T13:41:48.060Z,76.80
2023-02-27T13:44:14.699Z,75.00
2023-02-27T13:46:41.407Z,75.00
2023-02-27T13:49:09.226Z,73.80
2023-02-27T13:51:37.348Z,73.70
2023-02-27T13:54:04.009Z,73.90
2023-02-27T13:56:30.748Z,76.50
2023-02-27T13:58:58.025Z,75.10
2023-02-27T14:01:24.784Z,74.10
2023-02-27T14:03:51.552Z,76.10
2023-02-27T14:06:18.226Z,76.20
2023-02-27T14:08:44.899Z,76.30
2023-02-27T14:11:11.683Z,75.00
2023-02-27T14:13:38.362Z,74.20
2023-02-27T14:16:05.056Z,75.20
2023-02-27T14:18:34.274Z,73.80
2023-02-27T14:21:01.142Z,73.00
2023-02-27T14:23:27.804Z,75.00
2023-02-27T14:25:54.487Z,75.90
2023-02-27T14:28:21.112Z,72.50
2023-02-27T14:30:47.778Z,75.70
2023-02-27T14:33:14.538Z,74.80
2023-02-27T14:35:41.211Z,76.20
2023-02-27T14:38:07.901Z,74.80
2023-02-27T14:40:34.508Z,75.50
2023-02-27T14:43:01.644Z,75.20
2023-02-27T14:45:28.300Z,77.00
2023-02-27T14:47:54.882Z,75.40
2023-02-27T14:50:21.516Z,76.10
2023-02-27T14:52:48.167Z,75.40
2023-02-27T14:55:15.110Z,76.40
2023-02-27T14:57:41.743Z,74.80
2023-02-27T15:00:08.398Z,77.00
2023-02-27T15:02:35.119Z,76.20
2023-02-27T15:05:01.797Z,76.30
2023-02-27T15:07:28.476Z,77.00
2023-02-27T15:09:55.170Z,76.30
2023-02-27T15:12:21.878Z,78.00
2023-02-27T15:14:48.883Z,76.50
2023-02-27T15:17:15.527Z,76.80
2023-02-27T15:19:42.165Z,76.40
2023-02-27T15:22:08.782Z,76.20
2023-02-27T15:24:49.337Z,76.80
2023-02-27T15:27:16.769Z,75.80
2023-02-27T15:29:43.517Z,74.80
2023-02-27T15:32:10.273Z,73.70
2023-02-27T15:34:36.916Z,74.80
2023-02-27T15:37:03.549Z,75.00
2023-02-27T15:39:30.195Z,75.70
2023-02-27T15:41:56.880Z,75.50
2023-02-27T15:44:23.526Z,76.80
2023-02-27T15:46:50.204Z,77.30
2023-02-27T15:49:16.869Z,78.10
2023-02-27T15:51:43.544Z,78.10
2023-02-27T15:54:10.189Z,77.90
2023-02-27T15:56:36.799Z,78.50
2023-02-27T15:59:03.481Z,77.50
2023-02-27T16:01:30.681Z,77.10
2023-02-27T16:03:57.505Z,76.80
2023-02-27T16:06:24.219Z,77.60
2023-02-27T16:08:50.972Z,77.70
2023-02-27T16:11:17.666Z,77.30
2023-02-27T16:13:44.302Z,78.60
2023-02-27T16:16:11.005Z,78.50
2023-02-27T16:18:37.611Z,78.50
2023-02-27T16:21:04.294Z,79.50
2023-02-27T16:23:30.942Z,79.10
2023-02-27T16:25:57.598Z,78.20
2023-02-27T16:28:24.288Z,77.90
2023-02-27T16:30:50.930Z,78.40
2023-02-27T16:33:17.610Z,78.50
2023-02-27T16:35:44.329Z,78.20
2023-02-27T16:38:11.023Z,78.30
2023-02-27T16:40:37.807Z,77.30
2023-02-27T16:43:04.576Z,77.60
2023-02-27T16:45:31.252Z,78.80
2023-02-27T16:47:57.923Z,78.20
2023-02-27T16:50:25.572Z,79.10
2023-02-27T16:52:52.170Z,78.00
2023-02-27T16:55:18.847Z,78.90
2023-02-27T16:57:45.453Z,78.30
2023-02-27T17:00:12.053Z,78.70
2023-02-27T17:02:38.742Z,79.20
2023-02-27T17:05:05.411Z,77.60
2023-02-27T17:07:32.118Z,78.70
2023-02-27T17:09:58.736Z,78.70
2023-02-27T17:12:25.448Z,77.60
2023-02-27T17:14:52.061Z,78.50
2023-02-27T17:17:18.753Z,76.90
2023-02-27T17:19:46.477Z,77.80
2023-02-27T17:22:13.175Z,77.90
2023-02-27T17:24:39.809Z,78.00
2023-02-27T17:27:06.460Z,77.50
2023-02-27T17:29:33.056Z,77.60
2023-02-27T17:31:59.750Z,77.50
2023-02-27T17:34:26.393Z,77.70
2023-02-27T17:36:53.043Z,78.00
2023-02-27T17:39:19.677Z,77.50
2023-02-27T17:41:46.368Z,77.70
2023-02-27T17:44:13.042Z,78.00
2023-02-27T17:46:39.684Z,78.60
2023-02-27T17:49:08.262Z,79.10
2023-02-27T17:51:34.892Z,78.70
2023-02-27T17:54:01.535Z,79.30
2023-02-27T17:56:28.360Z,79.90
2023-02-27T17:58:55.223Z,79.40
2023-02-27T18:01:21.912Z,79.20
2023-02-27T18:03:48.608Z,78.60
2023-02-27T18:06:15.239Z,78.70
2023-02-27T18:08:41.829Z,78.60
2023-02-27T18:11:08.458Z,78.70
2023-02-27T18:13:35.116Z,78.40
2023-02-27T18:16:01.832Z,78.50
2023-02-27T18:18:28.671Z,78.90
2023-02-27T18:20:55.293Z,78.40
2023-02-27T18:23:21.939Z,77.60
2023-02-27T18:25:48.589Z,77.80
2023-02-27T18:28:15.225Z,78.70
2023-02-27T18:30:41.858Z,78.10
2023-02-27T18:33:08.531Z,79.10
2023-02-27T18:35:35.211Z,79.50
2023-02-27T18:38:01.895Z,79.00
2023-02-27T18:40:28.712Z,79.20
2023-02-27T18:42:55.346Z,79.80
2023-02-27T18:45:22.198Z,79.90
2023-02-27T18:47:48.804Z,79.10
2023-02-27T18:50:15.435Z,78.90
2023-02-27T18:52:42.037Z,80.10
2023-02-27T18:55:08.813Z,79.80
2023-02-27T18:57:35.526Z,78.50
2023-02-27T19:00:02.230Z,78.50
2023-02-27T19:02:28.875Z,79.40
2023-02-27T19:04:55.556Z,80.00
2023-02-27T19:07:22.284Z,80.20
2023-02-27T19:09:48.896Z,79.60
2023-02-27T19:12:18.564Z,79.80
2023-02-27T19:14:45.234Z,79.00
2023-02-27T19:17:11.908Z,79.50
2023-02-27T19:19:38.517Z,78.80
2023-02-27T19:22:05.193Z,78.50
2023-02-27T19:24:31.925Z,78.80
2023-02-27T19:26:58.583Z,79.10
2023-02-27T19:29:25.318Z,78.90
2023-02-27T19:31:52.077Z,78.30
2023-02-27T19:34:18.896Z,77.90
2023-02-27T19:36:45.571Z,77.90
2023-02-27T19:39:12.240Z,78.60
2023-02-27T19:41:38.974Z,78.10
2023-02-27T19:44:05.638Z,79.50
2023-02-27T19:46:32.693Z,78.80
2023-02-27T19:48:59.512Z,78.60
2023-02-27T19:51:26.332Z,78.60
2023-02-27T19:53:52.951Z,78.30
2023-02-27T19:56:19.659Z,78.80
2023-02-27T19:58:46.334Z,78.30
2023-02-27T20:01:13.032Z,78.60
2023-02-27T20:03:41.359Z,78.90
2023-02-27T20:06:09.838Z,78.60
2023-02-27T20:08:36.542Z,78.90
2023-02-27T20:11:03.174Z,78.40
2023-02-27T20:13:29.822Z,79.00
2023-02-27T20:15:56.468Z,79.80
2023-02-27T20:18:23.154Z,78.80
2023-02-27T20:20:49.796Z,78.90
2023-02-27T20:23:16.460Z,79.40
2023-02-27T20:25:43.142Z,80.00
2023-02-27T20:28:09.781Z,79.80
2023-02-27T20:30:36.488Z,79.50
2023-02-27T20:33:03.135Z,80.60
2023-02-27T20:35:29.796Z,79.00
2023-02-27T20:37:56.562Z,77.70
2023-02-27T20:40:23.167Z,79.00
2023-02-27T20:42:50.247Z,79.10
2023-02-27T20:45:16.894Z,78.80
2023-02-27T20:47:43.537Z,78.80
2023-02-27T20:50:10.188Z,78.50
2023-02-27T20:52:36.837Z,78.00
2023-02-27T20:55:03.471Z,78.10
2023-02-27T20:57:30.302Z,78.30
2023-02-27T20:59:56.968Z,78.60
2023-02-27T21:02:23.618Z,78.40
2023-02-27T21:04:50.423Z,78.60
2023-02-27T21:07:17.161Z,79.80
2023-02-27T21:09:43.813Z,80.20
2023-02-27T21:12:10.495Z,78.80
2023-02-27T21:14:37.147Z,77.60
2023-02-27T21:17:03.803Z,76.60
2023-02-27T21:19:30.502Z,76.60
2023-02-27T21:21:57.117Z,76.00
2023-02-27T21:24:23.750Z,76.50
2023-02-27T21:26:50.437Z,77.10
2023-02-27T21:29:17.069Z,77.30
2023-02-27T21:31:43.951Z,77.20
2023-02-27T21:34:10.566Z,78.50
2023-02-27T21:36:37.234Z,77.50
2023-02-27T21:39:03.829Z,78.20
2023-02-27T21:41:30.765Z,77.80
2023-02-27T21:43:57.603Z,78.00
2023-02-27T21:46:24.240Z,77.50
2023-02-27T21:48:51.025Z,77.80
2023-02-27T21:51:29.610Z,77.60
2023-02-27T21:54:03.716Z,77.80
2023-02-27T21:56:30.521Z,79.40
2023-02-27T21:58:57.308Z,79.50
2023-02-27T22:01:23.991Z,79.50
2023-02-27T22:03:50.740Z,81.60
2023-02-27T22:06:17.357Z,81.60
2023-02-27T22:08:43.986Z,81.40
2023-02-27T22:11:10.612Z,81.50
2023-02-27T22:13:37.464Z,81.60
2023-02-27T22:16:04.231Z,82.00
2023-02-27T22:18:30.894Z,82.40
2023-02-27T22:20:58.868Z,83.00
2023-02-27T22:23:25.529Z,81.30
2023-02-27T22:25:52.223Z,81.90
2023-02-27T22:28:18.831Z,80.80
2023-02-27T22:30:45.450Z,80.40
2023-02-27T22:33:12.083Z,79.90
2023-02-27T22:35:38.754Z,80.60
2023-02-27T22:38:05.506Z,81.30
2023-02-27T22:40:32.220Z,80.90
2023-02-27T22:42:58.870Z,80.80
2023-02-27T22:45:25.496Z,80.80
2023-02-27T22:47:52.137Z,80.20
2023-02-27T22:50:18.825Z,80.20
2023-02-27T22:52:45.510Z,80.30
2023-02-27T22:55:12.157Z,80.50
2023-02-27T22:57:38.940Z,80.60
2023-02-27T23:00:05.581Z,81.20
2023-02-27T23:02:32.257Z,81.50
2023-02-27T23:04:58.883Z,81.20
2023-02-27T23:07:26.861Z,81.40
2023-02-27T23:09:53.464Z,81.70
2023-02-27T23:12:20.103Z,81.80
2023-02-27T23:14:46.775Z,81.30
2023-02-27T23:17:13.417Z,81.80
2023-02-27T23:19:40.093Z,81.70
2023-02-27T23:22:06.734Z,80.90
2023-02-27T23:24:33.377Z,81.00
2023-02-27T23:27:00.043Z,81.00
2023-02-27T23:29:26.756Z,81.00
2023-02-27T23:31:53.610Z,81.70
2023-02-27T23:34:20.330Z,81.20
2023-02-27T23:36:47.063Z,81.80
2023-02-27T23:39:13.764Z,81.80
2023-02-27T23:41:40.420Z,82.40
2023-02-27T23:44:07.076Z,82.70
2023-02-27T23:46:33.710Z,82.80
2023-02-27T23:49:00.346Z,82.10
2023-02-27T23:51:29.687Z,82.20
2023-02-27T23:53:56.863Z,82.00
2023-02-27T23:56:23.522Z,82.50
2023-02-27T23:58:50.229Z,83.50
